Startpagina
METAR-TAF:

METAR-TAF

Vliegvelden :

Sandpoint Airport (Dave Wall Field)

Sandpoint, Idaho, Verenigde Staten

breedte: 48-17-58N, lengte: 116-33-36W, hoogte: 648 m

Actueel weer

Dit bericht is 27 minuten geleden gemaakt, om 21:35 UTC
Wind 10 kt uit het noordnoordoosten met uitschieters tot 15 kt
Temperatuur 8°C
Vochtigheid 57%
Druk 1022 hPa
Zicht: 16.1 km
Onbewolkt

METAR: KSZT 162135Z AUTO 02010G15KT 10SM CLR 08/00 A3018 RMK AO2

Tijdstip: 14:02 (22:02 UTC)


TAF: ontbreekt

Waarnemingen en weersverwachtingen van meer dan 4000 vliegvelden (METAR en TAF).

De beschikbare stations zijn de gele en rode punten op de kaart.

Ga met uw muis naar het station om de naam te zien.

Klik dan om waarnemingen en weersverwachtingen te zien.

kaart wijzigen: klik op de groene knoppen met een zwart kruis om in te zoomen, op de groene knop met een streepje om uit te zoomen of op de groene pijlen voor aangrenzende kaarten.


METAR-TAF: